createdAt,value
2023-01-28T00:02:37.404Z,9.02
2023-01-28T00:05:17.482Z,9.15
2023-01-28T00:08:02.540Z,8.32
2023-01-28T00:10:41.437Z,9.30
2023-01-28T00:13:27.394Z,8.80
2023-01-28T00:16:16.032Z,8.38
2023-01-28T00:18:57.985Z,8.60
2023-01-28T00:21:34.234Z,8.30
2023-01-28T00:24:18.294Z,9.02
2023-01-28T00:26:58.203Z,8.68
2023-01-28T00:29:45.602Z,8.85
2023-01-28T00:32:26.378Z,8.05
2023-01-28T00:35:04.005Z,8.93
2023-01-28T00:37:36.383Z,9.00
2023-01-28T00:40:19.244Z,8.88
2023-01-28T00:45:40.879Z,8.85
2023-01-28T00:48:28.208Z,9.90
2023-01-28T00:51:31.701Z,9.55
2023-01-28T00:54:10.120Z,8.40
2023-01-28T00:56:59.482Z,9.00
2023-01-28T00:59:46.051Z,9.52
2023-01-28T01:02:26.388Z,9.55
2023-01-28T01:05:07.388Z,9.05
2023-01-28T01:07:48.369Z,9.00
2023-01-28T01:10:22.452Z,8.65
2023-01-28T01:13:05.809Z,8.80
2023-01-28T01:16:07.400Z,8.75
2023-01-28T01:18:50.787Z,9.07
2023-01-28T01:21:39.524Z,8.00
2023-01-28T01:24:21.741Z,9.30
2023-01-28T01:27:04.071Z,9.27
2023-01-28T01:29:49.369Z,9.30
2023-01-28T01:32:25.159Z,8.63
2023-01-28T01:34:51.896Z,9.88
2023-01-28T01:37:18.473Z,8.68
2023-01-28T01:39:55.627Z,9.10
2023-01-28T01:42:24.963Z,8.50
2023-01-28T01:45:06.861Z,8.93
2023-01-28T01:47:48.530Z,8.50
2023-01-28T01:50:39.639Z,9.50
2023-01-28T01:56:07.767Z,7.75
2023-01-28T01:59:02.223Z,7.60
2023-01-28T02:01:35.198Z,8.30
2023-01-28T02:04:12.893Z,8.52
2023-01-28T02:06:40.139Z,7.65
2023-01-28T02:09:22.549Z,8.15
2023-01-28T02:11:52.433Z,7.88
2023-01-28T02:14:30.537Z,8.88
2023-01-28T02:17:00.103Z,8.02
2023-01-28T02:19:39.039Z,8.30
2023-01-28T02:22:33.331Z,7.60
2023-01-28T02:25:18.224Z,7.07
2023-01-28T02:28:18.459Z,7.60
2023-01-28T02:31:17.652Z,7.35
2023-01-28T02:33:58.773Z,7.28
2023-01-28T02:37:07.638Z,6.80
2023-01-28T02:39:40.172Z,7.20
2023-01-28T02:42:12.737Z,7.15
2023-01-28T02:44:39.413Z,6.22
2023-01-28T02:47:11.324Z,5.95
2023-01-28T02:49:59.971Z,6.30
2023-01-28T02:52:39.011Z,6.38
2023-01-28T02:55:13.210Z,6.60
2023-01-28T02:58:36.777Z,7.05
2023-01-28T03:01:19.055Z,6.72
2023-01-28T03:06:33.805Z,8.30
2023-01-28T03:09:05.384Z,7.00
2023-01-28T03:11:41.009Z,8.80
2023-01-28T03:14:15.890Z,8.02
2023-01-28T03:16:52.415Z,8.02
2023-01-28T03:19:31.402Z,8.27
2023-01-28T03:21:58.580Z,8.95
2023-01-28T03:24:49.246Z,7.82
2023-01-28T03:27:28.492Z,8.05
2023-01-28T03:30:04.841Z,8.75
2023-01-28T03:32:34.689Z,8.23
2023-01-28T03:35:01.464Z,8.45
2023-01-28T03:37:31.219Z,8.88
2023-01-28T03:40:06.765Z,8.88
2023-01-28T03:42:46.049Z,8.88
2023-01-28T03:45:13.187Z,7.65
2023-01-28T03:47:52.583Z,9.45
2023-01-28T03:50:19.237Z,9.18
2023-01-28T03:52:49.516Z,8.90
2023-01-28T03:55:25.801Z,9.25
2023-01-28T03:58:01.582Z,9.35
2023-01-28T04:00:45.582Z,8.98
2023-01-28T04:03:21.101Z,9.45
2023-01-28T04:06:26.561Z,9.73
2023-01-28T04:09:00.910Z,9.20
2023-01-28T04:11:32.256Z,9.45
2023-01-28T04:14:13.292Z,9.45
2023-01-28T04:16:51.694Z,9.82
2023-01-28T04:19:31.608Z,10.63
2023-01-28T04:21:58.271Z,9.48
2023-01-28T04:24:25.120Z,9.82
2023-01-28T04:27:03.364Z,10.02
2023-01-28T04:29:30.866Z,9.75
2023-01-28T04:31:57.669Z,10.38
2023-01-28T04:34:24.277Z,10.13
2023-01-28T04:36:50.967Z,10.60
2023-01-28T04:39:26.765Z,10.73
2023-01-28T04:41:56.380Z,10.73
2023-01-28T04:44:35.897Z,10.98
2023-01-28T04:47:12.480Z,10.20
2023-01-28T04:49:40.216Z,10.52
2023-01-28T04:52:12.648Z,9.88
2023-01-28T04:54:42.718Z,9.93
2023-01-28T04:57:11.542Z,10.35
2023-01-28T04:59:38.324Z,10.80
2023-01-28T05:02:05.101Z,10.90
2023-01-28T05:04:40.737Z,10.93
2023-01-28T05:07:34.999Z,11.88
2023-01-28T05:10:14.315Z,11.25
2023-01-28T05:12:40.933Z,11.23
2023-01-28T05:15:10.567Z,10.43
2023-01-28T05:17:46.640Z,10.55
2023-01-28T05:20:19.192Z,10.43
2023-01-28T05:22:52.938Z,10.85
2023-01-28T05:25:28.473Z,11.02
2023-01-28T05:28:04.539Z,10.98
2023-01-28T05:30:32.393Z,11.50
2023-01-28T05:33:09.864Z,10.45
2023-01-28T05:35:50.470Z,10.23
2023-01-28T05:38:30.120Z,10.38
2023-01-28T05:41:04.569Z,10.10
2023-01-28T05:43:32.505Z,10.15
2023-01-28T05:45:59.213Z,10.95
2023-01-28T05:48:36.022Z,11.23
2023-01-28T05:51:09.919Z,11.60
2023-01-28T05:53:36.501Z,11.48
2023-01-28T05:56:06.500Z,10.65
2023-01-28T05:58:40.463Z,10.73
2023-01-28T06:01:22.446Z,11.63
2023-01-28T06:03:56.506Z,11.23
2023-01-28T06:06:25.793Z,11.23
2023-01-28T06:08:59.960Z,11.52
2023-01-28T06:11:36.639Z,11.43
2023-01-28T06:14:06.337Z,11.40
2023-01-28T06:16:36.966Z,11.00
2023-01-28T06:19:07.944Z,12.45
2023-01-28T06:21:34.565Z,12.63
2023-01-28T06:24:01.173Z,11.57
2023-01-28T06:26:30.980Z,11.65
2023-01-28T06:29:05.395Z,11.95
2023-01-28T06:31:40.473Z,12.05
2023-01-28T06:34:10.699Z,11.75
2023-01-28T06:36:45.494Z,11.70
2023-01-28T06:39:12.343Z,12.93
2023-01-28T06:44:19.430Z,11.93
2023-01-28T06:46:46.080Z,12.63
2023-01-28T06:49:24.082Z,12.02
2023-01-28T06:51:50.712Z,11.85
2023-01-28T06:54:17.341Z,12.25
2023-01-28T06:56:52.935Z,12.80
2023-01-28T06:59:31.482Z,12.50
2023-01-28T07:02:00.653Z,12.27
2023-01-28T07:04:27.941Z,12.65
2023-01-28T07:07:00.968Z,12.27
2023-01-28T07:09:27.983Z,12.82
2023-01-28T07:11:54.609Z,12.85
2023-01-28T07:14:21.576Z,12.90
2023-01-28T07:16:52.635Z,11.93
2023-01-28T07:19:19.240Z,13.40
2023-01-28T07:21:45.902Z,12.73
2023-01-28T07:24:12.549Z,13.55
2023-01-28T07:26:45.045Z,12.80
2023-01-28T07:29:13.474Z,14.18
2023-01-28T07:31:41.254Z,12.88
2023-01-28T07:34:11.960Z,13.57
2023-01-28T07:36:46.732Z,12.57
2023-01-28T07:39:22.595Z,14.32
2023-01-28T07:41:58.699Z,14.45
2023-01-28T07:44:28.931Z,13.63
2023-01-28T07:46:59.229Z,14.10
2023-01-28T07:49:33.084Z,13.90
2023-01-28T07:51:59.999Z,14.77
2023-01-28T07:54:35.174Z,14.85
2023-01-28T07:57:13.988Z,14.65
2023-01-28T07:59:40.639Z,14.70
2023-01-28T08:02:10.625Z,14.57
2023-01-28T08:04:45.863Z,15.93
2023-01-28T08:07:37.286Z,15.25
2023-01-28T08:10:09.241Z,15.13
2023-01-28T08:12:35.877Z,16.27
2023-01-28T08:15:02.508Z,15.25
2023-01-28T08:17:29.082Z,16.40
2023-01-28T08:19:58.589Z,16.30
2023-01-28T08:22:30.418Z,17.33
2023-01-28T08:24:57.062Z,15.38
2023-01-28T08:27:29.582Z,16.02
2023-01-28T08:32:38.136Z,17.10
2023-01-28T08:35:14.967Z,18.40
2023-01-28T08:37:49.699Z,17.58
2023-01-28T08:40:31.516Z,17.88
2023-01-28T08:43:16.660Z,17.27
2023-01-28T08:45:50.023Z,17.85
2023-01-28T08:48:18.622Z,19.35
2023-01-28T08:50:53.541Z,19.08
2023-01-28T08:53:20.876Z,19.17
2023-01-28T08:55:48.517Z,19.25
2023-01-28T08:58:21.984Z,18.55
2023-01-28T09:00:56.674Z,20.08
2023-01-28T09:03:23.289Z,19.20
2023-01-28T09:05:49.986Z,19.10
2023-01-28T09:08:29.783Z,19.02
2023-01-28T09:11:06.243Z,17.83
2023-01-28T09:13:32.949Z,19.02
2023-01-28T09:15:59.664Z,17.63
2023-01-28T09:18:41.415Z,18.67
2023-01-28T09:21:16.680Z,18.90
2023-01-28T09:23:43.331Z,18.30
2023-01-28T09:26:11.200Z,18.40
2023-01-28T09:28:40.883Z,19.40
2023-01-28T09:31:23.530Z,17.88
2023-01-28T09:33:59.181Z,18.50
2023-01-28T09:36:27.030Z,17.65
2023-01-28T09:39:05.261Z,17.85
2023-01-28T09:42:12.328Z,16.83
2023-01-28T09:45:20.508Z,19.33
2023-01-28T09:48:01.951Z,19.77
2023-01-28T09:50:35.750Z,19.55
2023-01-28T09:53:28.681Z,18.88
2023-01-28T09:56:05.476Z,22.08
2023-01-28T09:58:32.360Z,19.33
2023-01-28T10:01:11.178Z,17.70
2023-01-28T10:04:07.227Z,23.95
2023-01-28T10:06:56.706Z,21.10
2023-01-28T10:09:41.756Z,17.63
2023-01-28T10:12:31.715Z,16.52
2023-01-28T10:15:26.777Z,16.70
2023-01-28T10:18:15.752Z,16.98
2023-01-28T10:20:58.001Z,18.23
2023-01-28T10:23:42.697Z,17.33
2023-01-28T10:26:21.821Z,18.80
2023-01-28T10:28:57.089Z,17.00
2023-01-28T10:31:30.561Z,16.80
2023-01-28T10:33:57.436Z,16.33
2023-01-28T10:36:34.230Z,16.63
2023-01-28T10:39:02.315Z,16.33
2023-01-28T10:41:28.989Z,16.10
2023-01-28T10:43:57.332Z,15.60
2023-01-28T10:46:30.020Z,15.77
2023-01-28T10:49:16.356Z,14.60
2023-01-28T10:51:43.271Z,14.23
2023-01-28T10:54:29.806Z,15.02
2023-01-28T10:57:02.340Z,14.60
2023-01-28T10:59:31.222Z,15.85
2023-01-28T11:02:34.677Z,15.77
2023-01-28T11:05:24.224Z,14.35
2023-01-28T11:08:14.057Z,15.05
2023-01-28T11:10:44.489Z,14.73
2023-01-28T11:13:28.326Z,13.27
2023-01-28T11:16:03.485Z,14.30
2023-01-28T11:18:37.784Z,14.05
2023-01-28T11:21:29.924Z,13.70
2023-01-28T11:24:01.661Z,13.98
2023-01-28T11:26:46.456Z,14.93
2023-01-28T11:29:27.746Z,14.35
2023-01-28T11:31:58.509Z,15.57
2023-01-28T11:34:38.353Z,14.73
2023-01-28T11:37:34.253Z,14.25
2023-01-28T11:40:08.449Z,14.30
2023-01-28T11:42:37.950Z,15.40
2023-01-28T11:45:17.718Z,15.25
2023-01-28T11:47:47.122Z,14.15
2023-01-28T11:50:54.743Z,14.85
2023-01-28T11:53:45.987Z,15.10
2023-01-28T11:56:19.854Z,15.15
2023-01-28T11:58:56.324Z,15.07
2023-01-28T12:01:32.686Z,14.90
2023-01-28T12:04:24.092Z,15.25
2023-01-28T12:07:19.622Z,13.38
2023-01-28T12:10:24.148Z,15.20
2023-01-28T12:13:19.023Z,14.55
2023-01-28T12:15:59.081Z,15.02
2023-01-28T12:19:22.037Z,15.32
2023-01-28T12:22:31.380Z,17.45
2023-01-28T12:25:39.223Z,15.00
2023-01-28T12:28:28.555Z,14.90
2023-01-28T12:31:36.670Z,15.85
2023-01-28T12:34:16.980Z,15.10
2023-01-28T12:37:04.399Z,15.18
2023-01-28T12:39:52.948Z,15.75
2023-01-28T12:42:48.870Z,17.65
2023-01-28T12:45:26.700Z,17.40
2023-01-28T12:48:04.539Z,17.10
2023-01-28T12:50:47.563Z,17.60
2023-01-28T12:53:49.012Z,17.90
2023-01-28T12:56:40.424Z,17.63
2023-01-28T12:59:25.744Z,16.27
2023-01-28T13:02:11.969Z,15.80
2023-01-28T13:05:19.049Z,15.52
2023-01-28T13:07:51.681Z,17.83
2023-01-28T13:10:58.887Z,16.50
2023-01-28T13:13:56.266Z,18.02
2023-01-28T13:16:37.296Z,16.13
2023-01-28T13:19:23.829Z,18.03
2023-01-28T13:21:50.872Z,17.48
2023-01-28T13:24:33.780Z,16.42
2023-01-28T13:27:13.561Z,15.55
2023-01-28T13:29:48.062Z,16.20
2023-01-28T13:32:44.897Z,15.32
2023-01-28T13:35:38.238Z,16.42
2023-01-28T13:38:18.769Z,16.27
2023-01-28T13:41:01.013Z,17.65
2023-01-28T13:46:02.671Z,15.70
2023-01-28T13:48:52.621Z,16.30
2023-01-28T13:51:25.879Z,14.75
2023-01-28T13:54:26.629Z,14.95
2023-01-28T13:57:01.617Z,15.15
2023-01-28T13:59:43.288Z,15.25
2023-01-28T14:02:37.220Z,17.15
2023-01-28T14:05:25.415Z,14.68
2023-01-28T14:08:32.367Z,16.23
2023-01-28T14:11:14.996Z,16.33
2023-01-28T14:14:29.528Z,16.55
2023-01-28T14:17:21.928Z,16.02
2023-01-28T14:19:57.068Z,16.48
2023-01-28T14:22:33.579Z,15.57
2023-01-28T14:25:33.091Z,15.52
2023-01-28T14:28:34.644Z,14.77
2023-01-28T14:31:37.300Z,13.82
2023-01-28T14:34:27.562Z,14.35
2023-01-28T14:40:16.445Z,13.23
2023-01-28T14:43:11.352Z,14.48
2023-01-28T14:46:10.375Z,12.63
2023-01-28T14:49:10.777Z,13.82
2023-01-28T14:51:46.485Z,14.48
2023-01-28T14:54:24.523Z,13.93
2023-01-28T14:57:15.297Z,13.98
2023-01-28T14:59:57.212Z,15.52
2023-01-28T15:02:34.855Z,15.43
2023-01-28T15:05:25.971Z,14.63
2023-01-28T15:08:17.750Z,14.18
2023-01-28T15:11:17.137Z,15.15
2023-01-28T15:13:51.293Z,14.07
2023-01-28T15:16:23.930Z,16.02
2023-01-28T15:19:10.993Z,15.00
2023-01-28T15:21:46.901Z,15.27
2023-01-28T15:24:23.337Z,16.13
2023-01-28T15:27:00.686Z,15.15
2023-01-28T15:29:46.055Z,16.60
2023-01-28T15:32:52.780Z,15.80
2023-01-28T15:35:42.490Z,15.55
2023-01-28T15:38:23.677Z,15.73
2023-01-28T15:41:12.097Z,14.82
2023-01-28T15:43:58.289Z,16.52
2023-01-28T15:46:39.637Z,16.35
2023-01-28T15:49:29.083Z,16.52
2023-01-28T15:52:04.740Z,16.88
2023-01-28T15:54:39.403Z,17.23
2023-01-28T15:57:34.584Z,17.08
2023-01-28T16:00:18.537Z,18.05
2023-01-28T16:03:18.619Z,16.55
2023-01-28T16:06:23.242Z,17.48
2023-01-28T16:08:58.441Z,18.45
2023-01-28T16:11:35.317Z,17.33
2023-01-28T16:14:36.154Z,18.80
2023-01-28T16:17:05.970Z,18.63
2023-01-28T16:19:44.875Z,17.60
2023-01-28T16:22:42.075Z,18.20
2023-01-28T16:25:36.713Z,16.83
2023-01-28T16:28:20.191Z,17.58
2023-01-28T16:30:56.404Z,17.55
2023-01-28T16:33:33.772Z,18.42
2023-01-28T16:36:09.560Z,19.35
2023-01-28T16:38:45.162Z,18.65
2023-01-28T16:41:25.511Z,18.35
2023-01-28T16:43:52.206Z,18.50
2023-01-28T16:49:00.245Z,16.52
2023-01-28T16:51:34.757Z,17.08
2023-01-28T16:54:19.314Z,17.05
2023-01-28T16:56:54.074Z,20.05
2023-01-28T16:59:35.845Z,19.17
2023-01-28T17:02:14.784Z,19.27
2023-01-28T17:04:42.553Z,18.73
2023-01-28T17:07:09.720Z,19.33
2023-01-28T17:09:41.876Z,17.88
2023-01-28T17:12:21.092Z,19.70
2023-01-28T17:15:03.285Z,20.90
2023-01-28T17:17:48.123Z,18.73
2023-01-28T17:20:30.589Z,20.45
2023-01-28T17:23:17.749Z,21.15
2023-01-28T17:25:52.137Z,21.33
2023-01-28T17:28:39.133Z,19.77
2023-01-28T17:31:17.195Z,19.60
2023-01-28T17:33:57.887Z,20.15
2023-01-28T17:39:13.241Z,20.88
2023-01-28T17:42:10.525Z,20.10
2023-01-28T17:44:49.711Z,19.58
2023-01-28T17:47:24.088Z,23.65
2023-01-28T17:50:00.327Z,20.52
2023-01-28T17:52:44.357Z,19.27
2023-01-28T17:55:29.058Z,20.55
2023-01-28T17:58:19.262Z,21.10
2023-01-28T18:00:57.832Z,20.23
2023-01-28T18:03:55.139Z,19.83
2023-01-28T18:06:38.873Z,19.95
2023-01-28T18:09:12.386Z,20.85
2023-01-28T18:11:41.050Z,19.70
2023-01-28T18:14:17.645Z,20.48
2023-01-28T18:16:54.890Z,21.08
2023-01-28T18:19:30.044Z,21.27
2023-01-28T18:22:11.760Z,19.92
2023-01-28T18:24:49.438Z,21.52
2023-01-28T18:30:16.493Z,21.65
2023-01-28T18:32:52.439Z,19.27
2023-01-28T18:35:24.344Z,20.73
2023-01-28T18:37:53.524Z,21.73
2023-01-28T18:40:42.019Z,21.15
2023-01-28T18:43:26.181Z,20.90
2023-01-28T18:45:58.041Z,22.15
2023-01-28T18:48:31.202Z,20.85
2023-01-28T18:51:17.499Z,21.17
2023-01-28T18:54:13.128Z,21.35
2023-01-28T18:56:59.972Z,20.85
2023-01-28T18:59:36.239Z,21.60
2023-01-28T19:02:10.741Z,21.65
2023-01-28T19:04:54.549Z,21.80
2023-01-28T19:07:30.721Z,21.65
2023-01-28T19:10:09.315Z,21.45
2023-01-28T19:12:53.599Z,22.90
2023-01-28T19:15:34.603Z,23.42
2023-01-28T19:18:09.493Z,22.52
2023-01-28T19:20:47.667Z,23.65
2023-01-28T19:23:14.561Z,24.38
2023-01-28T19:25:46.368Z,25.35
2023-01-28T19:28:12.916Z,24.95
2023-01-28T19:30:39.544Z,23.17
2023-01-28T19:33:15.126Z,24.38
2023-01-28T19:35:55.717Z,24.10
2023-01-28T19:38:31.893Z,23.73
2023-01-28T19:41:18.703Z,25.50
2023-01-28T19:43:46.010Z,24.55
2023-01-28T19:46:30.935Z,24.70
2023-01-28T19:49:08.072Z,23.23
2023-01-28T19:51:50.634Z,23.70
2023-01-28T19:54:29.136Z,23.88
2023-01-28T19:57:04.475Z,23.38
2023-01-28T19:59:47.042Z,24.02
2023-01-28T20:02:22.044Z,23.45
2023-01-28T20:05:14.419Z,24.15
2023-01-28T20:07:50.283Z,23.55
2023-01-28T20:10:37.632Z,25.13
2023-01-28T20:13:28.204Z,22.60
2023-01-28T20:15:56.785Z,22.75
2023-01-28T20:18:39.830Z,23.42
2023-01-28T20:21:16.299Z,24.33
2023-01-28T20:24:10.386Z,25.20
2023-01-28T20:26:56.508Z,24.60
2023-01-28T20:29:40.560Z,23.33
2023-01-28T20:32:22.214Z,25.38
2023-01-28T20:34:56.630Z,23.80
2023-01-28T20:37:33.861Z,23.13
2023-01-28T20:40:22.160Z,23.25
2023-01-28T20:43:00.467Z,22.85
2023-01-28T20:45:55.290Z,23.13
2023-01-28T20:48:45.744Z,24.65
2023-01-28T20:54:16.578Z,24.25
2023-01-28T20:56:59.191Z,24.05
2023-01-28T20:59:35.031Z,23.00
2023-01-28T21:02:35.848Z,22.90
2023-01-28T21:05:22.344Z,23.55
2023-01-28T21:08:23.409Z,23.80
2023-01-28T21:11:00.509Z,24.40
2023-01-28T21:13:41.031Z,23.73
2023-01-28T21:16:11.804Z,25.25
2023-01-28T21:18:53.349Z,24.08
2023-01-28T21:21:28.164Z,23.33
2023-01-28T21:23:59.499Z,24.60
2023-01-28T21:28:59.057Z,24.20
2023-01-28T21:31:38.131Z,25.10
2023-01-28T21:34:06.045Z,23.63
2023-01-28T21:36:32.709Z,24.67
2023-01-28T21:39:01.637Z,24.77
2023-01-28T21:41:28.565Z,23.65
2023-01-28T21:44:04.632Z,23.60
2023-01-28T21:46:42.354Z,23.00
2023-01-28T21:49:23.545Z,24.15
2023-01-28T21:51:53.505Z,22.98
2023-01-28T21:54:28.301Z,23.52
2023-01-28T21:57:00.297Z,22.67
2023-01-28T21:59:38.087Z,21.90
2023-01-28T22:02:17.469Z,21.30
2023-01-28T22:04:49.209Z,22.73
2023-01-28T22:07:17.167Z,21.05
2023-01-28T22:10:12.268Z,21.55
2023-01-28T22:12:50.450Z,24.00
2023-01-28T22:15:26.134Z,21.92
2023-01-28T22:17:52.745Z,22.85
2023-01-28T22:20:21.448Z,22.30
2023-01-28T22:22:50.473Z,22.08
2023-01-28T22:25:22.269Z,21.58
2023-01-28T22:27:51.496Z,21.23
2023-01-28T22:30:18.692Z,21.52
2023-01-28T22:32:48.527Z,21.70
2023-01-28T22:35:21.506Z,21.92
2023-01-28T22:37:58.733Z,21.70
2023-01-28T22:40:40.111Z,21.27
2023-01-28T22:43:19.059Z,22.10
2023-01-28T22:45:56.686Z,21.08
2023-01-28T22:48:23.353Z,21.80
2023-01-28T22:50:52.536Z,20.60
2023-01-28T22:53:19.179Z,20.67
2023-01-28T22:55:54.345Z,21.48
2023-01-28T22:58:36.039Z,22.13
2023-01-28T23:01:02.737Z,20.25
2023-01-28T23:03:51.371Z,20.17
2023-01-28T23:06:28.919Z,21.10
2023-01-28T23:08:56.114Z,20.15
2023-01-28T23:11:31.576Z,19.27
2023-01-28T23:14:01.806Z,21.27
2023-01-28T23:16:44.777Z,20.77
2023-01-28T23:19:14.584Z,20.77
2023-01-28T23:21:42.395Z,21.02
2023-01-28T23:24:30.813Z,20.80
2023-01-28T23:27:07.204Z,19.83
2023-01-28T23:30:01.847Z,21.25
2023-01-28T23:32:41.826Z,20.10
2023-01-28T23:35:49.101Z,20.73
2023-01-28T23:41:22.228Z,19.55
2023-01-28T23:43:48.852Z,19.35
2023-01-28T23:46:15.553Z,20.38
2023-01-28T23:48:52.438Z,20.88
2023-01-28T23:51:23.544Z,20.13
2023-01-28T23:53:50.660Z,20.55
2023-01-28T23:56:18.505Z,20.25
2023-01-28T23:58:54.160Z,21.17
